Latest Weather Observations for Gunnedah Airport

IDN60801

Issued at 1:03 pm EST Tuesday 30 June 2015 (issued every 30 minutes, with the page automatically refreshed every 10 minutes)

About weather observations | Map of weather stations | Latest weather observations for NSW | Other Formats
Station Details ID: 055202 Name: GUNNEDAH AIRPORT AWS Lat: -30.95 Lon: 150.25 Height: 262.57 m
Data from the previous 72 hours. | See also: Recent months at Gunnedah Airport
Date/Time
EST
Temp
°C
App
Temp
°C
Dew
Point
Rel
Hum
%
Delta-T
°C
Wind Press
QNH
hPa
Press
MSL
hPa
Rain
since 9 am
mm
Dir
 
Spd
km/h
Gust
km/h
Spd
kts
Gust
kts
30/01:00pm 13.1 12.7 8.2 72 2.4 CALM 0 0 0 0 1027.2 1027.4 0.0
30/12:30pm 12.8 11.1 8.3 74 2.2 E 7 9 4 5 1027.5 1027.7 0.0
30/12:00pm 12.9 10.5 6.9 67 2.9 ESE 9 11 5 6 1028.1 1028.3 0.0
30/11:30am 12.7 10.3 7.0 68 2.8 ESE 9 13 5 7 1028.6 1028.8 0.0
30/11:00am 11.8 9.5 7.5 75 2.1 E 9 11 5 6 1029.0 1029.2 0.0
30/10:30am 10.5 8.2 7.4 81 1.5 E 9 13 5 7 1029.1 1029.3 0.0
30/10:00am 9.3 7.1 6.4 82 1.4 E 7 9 4 5 1029.4 1029.6 0.0
30/09:30am 8.7 6.0 5.6 81 1.4 E 9 11 5 6 1029.3 1029.5 0.0
30/09:00am 8.0 4.4 5.1 82 1.3 SE 13 17 7 9 1029.1 1029.3 0.0
30/08:30am 7.1 2.6 4.4 83 1.2 SE 17 22 9 12 1028.8 1029.0 0.0
30/08:00am 7.8 4.6 4.9 82 1.3 SE 11 15 6 8 1028.5 1028.7 0.0
30/07:30am 8.2 4.7 5.5 83 1.2 SSE 13 15 7 8 1028.4 1028.6 0.0
30/07:00am 8.9 5.6 6.2 83 1.3 SE 13 17 7 9 1028.0 1028.2 0.0
30/06:30am 7.8 4.3 5.3 84 1.1 SE 13 15 7 8 1028.0 1028.2 0.0
30/06:00am 7.5 4.3 5.0 84 1.1 SSE 11 15 6 8 1027.7 1027.9 0.0
30/05:30am 7.2 3.9 4.3 82 1.3 SE 11 13 6 7 1027.7 1027.9 0.0
30/05:00am 7.4 4.1 4.5 82 1.3 S 11 15 6 8 1027.7 1027.9 0.0
30/04:30am 8.1 4.3 5.6 84 1.1 ESE 15 20 8 11 1027.3 1027.5 0.0
30/04:00am 7.0 2.5 4.1 82 1.3 SE 17 20 9 11 1027.5 1027.7 0.0
30/03:30am 6.5 2.3 4.0 84 1.1 SE 15 19 8 10 1027.8 1028.0 0.0
30/03:00am 5.8 2.6 3.0 82 1.2 SSE 9 11 5 6 1028.1 1028.3 0.0
30/02:30am 5.6 1.6 2.9 83 1.1 SE 13 15 7 8 1028.0 1028.2 0.0
30/02:00am 6.3 3.1 2.9 79 1.4 SE 9 11 5 6 1028.3 1028.5 0.0
30/01:30am 6.3 3.1 2.9 79 1.4 SE 9 11 5 6 1028.4 1028.6 0.0
30/01:00am 6.7 3.6 3.5 80 1.4 SE 9 11 5 6 1028.5 1028.7 0.0
30/12:30am 5.6 3.1 3.6 87 0.9 SE 6 9 3 5 1028.7 1028.9 0.0
30/12:00am 4.7 1.3 2.1 83 1.0 SSE 9 11 5 6 1028.8 1029.0 0.0
 
Date/Time
EST
Temp
°C
App
Temp
°C
Dew
Point
Rel
Hum
%
Delta-T
°C
Wind Press
QNH
hPa
Press
MSL
hPa
Rain
since 9 am
mm
Dir
 
Spd
km/h
Gust
km/h
Spd
kts
Gust
kts
29/11:30pm 5.5 1.6 3.2 85 1.0 SE 13 15 7 8 1029.1 1029.3 0.0
29/11:00pm 3.5 -0.3 1.5 87 0.8 ESE 11 13 6 7 1029.4 1029.6 0.0
29/10:30pm 4.1 1.1 2.1 87 0.8 E 7 9 4 5 1029.3 1029.5 0.0
29/10:00pm 2.8 -0.8 0.9 87 0.7 NE 9 11 5 6 1029.3 1029.5 0.0
29/09:30pm 5.5 2.8 3.8 89 0.7 SSE 7 9 4 5 1029.5 1029.7 0.0
29/09:00pm 6.3 5.1 4.8 90 0.7 CALM 0 0 0 0 1029.6 1029.9 0.0
29/08:30pm 6.2 5.0 4.5 89 0.7 CALM 0 0 0 0 1029.8 1030.1 0.0
29/08:00pm 7.0 5.5 5.2 88 0.8 ENE 2 6 1 3 1029.8 1030.1 0.0
29/07:30pm 7.3 5.0 4.6 83 1.2 S 6 7 3 4 1029.6 1029.9 0.0
29/07:00pm 8.2 5.7 4.8 79 1.5 S 7 7 4 4 1029.3 1029.5 0.0
29/06:30pm 9.7 7.2 3.7 66 2.7 S 6 9 3 5 1029.2 1029.4 0.0
29/06:00pm 9.9 6.8 3.6 65 2.8 S 9 9 5 5 1029.0 1029.2 0.0
29/05:30pm 12.5 11.6 6.1 65 3.1 CALM 0 0 0 0 1028.7 1028.9 0.0
29/05:00pm 15.5 14.5 5.4 51 4.8 CALM 0 0 0 0 1028.7 1028.9 0.0
29/04:30pm 17.5 16.7 6.7 49 5.4 CALM 0 0 0 0 1028.8 1029.0 0.0
29/04:00pm 18.0 17.3 7.1 49 5.5 CALM 0 0 0 0 1028.7 1028.9 0.0
29/03:30pm 18.5 17.2 4.3 39 6.8 CALM 0 0 0 0 1028.7 1028.9 0.0
29/03:00pm 18.6 16.7 5.1 41 6.6 ENE 4 7 2 4 1028.7 1028.9 0.0
29/02:30pm 18.1 16.0 5.7 44 6.1 ESE 6 9 3 5 1028.7 1028.9 0.0
29/02:00pm 17.7 15.2 4.6 42 6.3 ESE 7 13 4 7 1029.0 1029.2 0.0
29/01:30pm 17.0 14.0 5.9 48 5.5 SE 11 13 6 7 1029.1 1029.3 0.0
29/01:00pm 16.6 14.3 7.5 55 4.6 SE 9 13 5 7 1029.6 1029.9 0.0
29/12:30pm 15.9 13.0 6.6 54 4.6 SSE 11 17 6 9 1030.4 1030.6 0.0
29/12:00pm 15.1 12.4 7.4 60 3.8 SE 11 15 6 8 1030.8 1031.0 0.0
29/11:30am 13.5 10.2 6.6 63 3.4 SE 13 17 7 9 1031.3 1031.5 0.0
29/11:00am 12.7 9.5 6.7 67 2.9 SE 13 17 7 9 1031.7 1031.9 0.0
29/10:30am 11.6 7.8 5.7 67 2.8 SE 15 19 8 10 1032.1 1032.3 0.0
29/10:00am 10.3 6.5 5.7 73 2.1 SE 15 19 8 10 1032.6 1032.8 0.0
29/09:30am 8.6 5.0 5.0 78 1.6 SE 13 15 7 8 1032.5 1032.7 0.0
29/09:00am 7.1 3.4 4.2 82 1.3 SE 13 17 7 9 1032.4 1032.6 0.0
29/08:30am 5.8 1.5 3.3 84 1.1 SE 15 19 8 10 1032.6 1032.8 0.0
29/08:00am 4.6 0.5 2.3 85 0.9 SE 13 17 7 9 1032.5 1032.7 0.0
29/07:30am 3.8 -0.4 1.4 84 0.9 SE 13 17 7 9 1032.2 1032.4 0.0
29/07:00am 3.3 -0.7 0.5 82 1.1 SE 11 13 6 7 1031.8 1032.0 0.0
29/06:30am 4.0 0.6 1.7 85 0.9 SE 9 11 5 6 1031.6 1031.8 0.0
29/06:00am 3.9 0.6 2.4 90 0.6 SE 9 11 5 6 1031.3 1031.5 0.0
29/05:30am 3.0 -0.5 1.4 89 0.6 SE 9 13 5 7 1031.1 1031.3 0.0
29/05:00am 1.8 -2.3 0.0 88 0.7 SE 11 13 6 7 1031.0 1031.2 0.0
29/04:30am 3.5 -0.7 1.9 89 0.6 SE 13 15 7 8 1030.7 1030.9 0.0
29/04:00am 2.9 -0.6 1.3 89 0.6 ESE 9 13 5 7 1030.6 1030.8 0.0
29/03:30am 3.3 -0.5 1.7 89 0.6 ESE 11 17 6 9 1030.8 1031.0 0.0
29/03:00am 3.0 -1.2 1.4 89 0.6 SE 13 15 7 8 1030.7 1030.9 0.0
29/02:30am 2.3 -1.3 0.7 89 0.6 SE 9 13 5 7 1030.9 1031.1 0.0
29/02:00am 1.2 -1.6 -0.7 87 0.7 ESE 4 6 2 3 1030.9 1031.1 0.0
29/01:30am 2.9 0.0 1.4 90 0.6 ESE 6 9 3 5 1030.9 1031.1 0.0
29/01:00am 3.8 0.8 1.8 87 0.8 SE 7 7 4 4 1031.2 1031.4 0.0
29/12:30am 3.8 0.1 2.3 90 0.6 S 11 13 6 7 1031.2 1031.4 0.0
29/12:00am 2.7 -0.4 1.4 91 0.5 SE 7 9 4 5 1031.3 1031.5 0.0
 
Date/Time
EST
Temp
°C
App
Temp
°C
Dew
Point
Rel
Hum
%
Delta-T
°C
Wind Press
QNH
hPa
Press
MSL
hPa
Rain
since 9 am
mm
Dir
 
Spd
km/h
Gust
km/h
Spd
kts
Gust
kts
28/11:30pm 3.1 -0.3 2.1 93 0.4 S 9 13 5 7 1031.6 1031.8 0.0
28/11:00pm 2.7 -0.4 1.5 92 0.5 ESE 7 9 4 5 1031.4 1031.6 0.0
28/10:30pm 4.1 2.2 3.1 93 0.4 E 2 6 1 3 1031.5 1031.7 0.0
28/10:00pm 3.4 0.4 2.2 92 0.5 ENE 7 7 4 4 1031.3 1031.5 0.0
28/09:30pm 3.5 1.1 2.2 91 0.5 SSE 4 6 2 3 1031.4 1031.6 0.0
28/09:00pm 4.8 2.1 3.5 91 0.5 S 7 7 4 4 1031.2 1031.4 0.0
28/08:30pm 4.5 1.8 2.7 88 0.7 ESE 6 7 3 4 1031.1 1031.3 0.0
28/08:00pm 6.0 3.5 3.8 86 0.9 S 6 7 3 4 1030.9 1031.1 0.0
28/07:30pm 7.6 5.1 4.7 82 1.3 S 7 9 4 5 1030.8 1031.0 0.0
28/07:00pm 8.7 6.3 5.4 80 1.5 S 7 9 4 5 1030.6 1030.8 0.0
28/06:30pm 9.1 6.9 5.5 78 1.7 SSE 6 7 3 4 1030.1 1030.4 0.0
28/06:00pm 10.6 8.2 5.4 70 2.4 SSE 7 9 4 5 1029.9 1030.2 0.0
28/05:30pm 11.7 10.3 5.6 66 2.9 E 2 6 1 3 1029.7 1030.0 0.0
28/05:00pm 14.2 12.0 6.1 58 3.9 E 7 7 4 4 1029.5 1029.7 0.0
28/04:30pm 16.0 13.7 7.5 57 4.3 E 9 9 5 5 1029.6 1029.9 0.0
28/04:00pm 17.1 14.6 6.6 50 5.2 E 9 11 5 6 1029.5 1029.7 0.0
28/03:30pm 17.7 15.8 6.6 48 5.6 NNE 6 7 3 4 1029.6 1029.9 0.0
28/03:00pm 18.1 16.7 5.3 43 6.2 NNW 2 9 1 5 1029.6 1029.9 0.0
28/02:30pm 17.8 16.0 5.4 44 6.1 NNW 4 9 2 5 1029.7 1030.0 0.0
28/02:00pm 17.9 16.1 7.3 50 5.4 WNW 6 9 3 5 1030.1 1030.4 0.0
28/01:30pm 17.5 15.6 4.8 43 6.1 WSW 4 9 2 5 1030.4 1030.6 0.0
28/01:00pm 16.4 14.6 7.3 55 4.6 NE 6 9 3 5 1030.8 1031.0 0.0
28/12:30pm 15.7 14.8 7.7 59 4.1 ENE 2 6 1 3 1031.3 1031.5 0.0
28/12:00pm 14.7 12.9 7.3 61 3.7 ENE 6 7 3 4 1031.8 1032.0 0.0
28/11:30am 14.0 13.5 7.8 66 3.1 CALM 0 0 0 0 1032.4 1032.6 0.0
28/11:00am 12.6 10.6 7.3 70 2.6 ESE 7 11 4 6 1032.7 1032.9 0.0
28/10:30am 11.0 8.9 6.7 75 2.1 ESE 7 11 4 6 1032.9 1033.2 0.0
28/10:00am 9.9 7.7 6.2 78 1.7 ESE 7 11 4 6 1033.0 1033.3 0.0
28/09:30am 8.9 6.3 6.0 82 1.3 ESE 9 11 5 6 1033.1 1033.4 0.0
28/09:00am 7.3 4.1 5.3 87 0.9 SE 11 15 6 8 1033.0 1033.3 0.0
28/08:30am 6.0 3.1 4.8 92 0.5 ESE 9 13 5 7 1032.8 1033.1 0.0
28/08:00am 4.7 1.3 4.0 95 0.3 ESE 11 13 6 7 1032.6 1032.8 0.0
28/07:30am 2.9 -0.8 2.2 95 0.3 SE 11 13 6 7 1032.3 1032.5 0.0
28/07:00am 2.1 -1.8 1.2 94 0.3 SE 11 13 6 7 1032.0 1032.2 0.0
28/06:30am 2.9 -0.4 2.2 95 0.3 SE 9 11 5 6 1031.4 1031.6 0.0
28/06:00am 2.8 -0.6 2.1 95 0.3 SE 9 11 5 6 1031.1 1031.3 0.0
28/05:30am 3.4 0.1 2.7 95 0.3 SSE 9 9 5 5 1030.9 1031.1 0.0
28/05:00am 2.1 -1.4 1.4 95 0.3 SSE 9 11 5 6 1030.8 1031.0 0.0
28/04:30am 1.9 -1.3 1.0 94 0.3 SE 7 11 4 6 1030.5 1030.7 0.0
28/04:00am 1.6 -2.4 0.7 94 0.3 SSE 11 13 6 7 1030.6 1030.8 0.0
28/03:30am 3.0 0.0 2.3 95 0.3 ESE 7 9 4 5 1030.6 1030.8 0.0
28/03:00am 2.1 -1.0 1.4 95 0.3 SE 7 9 4 5 1030.7 1030.9 0.0
28/02:30am 1.7 -1.5 0.8 94 0.3 SE 7 9 4 5 1030.8 1031.0 0.0
28/02:00am 2.4 -0.5 1.5 94 0.3 SE 6 7 3 4 1031.0 1031.2 0.0
28/01:30am 1.9 -1.3 1.0 94 0.3 SSE 7 9 4 5 1031.0 1031.2 0.0
28/01:00am 2.2 0.4 1.3 94 0.3 CALM 0 0 0 0 1030.9 1031.1 0.0
28/12:30am 1.7 -0.2 0.7 93 0.4 CALM 0 0 0 0 1031.1 1031.3 0.0
28/12:00am 3.9 2.4 3.0 94 0.4 CALM 0 0 0 0 1031.3 1031.5 0.0
 
Date/Time
EST
Temp
°C
App
Temp
°C
Dew
Point
Rel
Hum
%
Delta-T
°C
Wind Press
QNH
hPa
Press
MSL
hPa
Rain
since 9 am
mm
Dir
 
Spd
km/h
Gust
km/h
Spd
kts
Gust
kts
27/11:30pm 4.0 1.4 3.1 94 0.4 S 6 6 3 3 1031.4 1031.6 0.0
27/11:00pm 3.8 1.0 2.9 94 0.4 S 7 9 4 5 1031.3 1031.5 0.0
27/10:30pm 4.2 1.6 3.2 93 0.4 E 6 7 3 4 1031.4 1031.6 0.0
27/10:00pm 3.9 0.6 2.7 92 0.5 ENE 9 11 5 6 1031.4 1031.6 0.0
27/09:30pm 6.0 4.8 4.8 92 0.5 CALM 0 0 0 0 1031.2 1031.4 0.0
27/09:00pm 6.0 4.5 4.8 92 0.5 S 2 7 1 4 1031.3 1031.5 0.0
27/08:30pm 6.9 4.8 5.7 92 0.5 S 6 7 3 4 1031.2 1031.4 0.0
27/08:00pm 7.3 5.2 5.8 90 0.7 S 6 6 3 3 1031.2 1031.4 0.0
27/07:30pm 7.4 5.2 5.4 87 0.9 S 6 7 3 4 1031.1 1031.3 0.0
27/07:00pm 8.3 5.9 5.2 81 1.4 S 7 9 4 5 1030.9 1031.1 0.0
27/06:30pm 9.1 7.9 6.5 84 1.2 SE 2 7 1 4 1030.6 1030.8 0.0
27/06:00pm 10.9 9.0 6.8 76 2.0 S 6 9 3 5 1030.4 1030.6 0.0
27/05:30pm 12.1 11.2 5.9 66 2.9 CALM 0 0 0 0 1030.1 1030.4 0.0
27/05:00pm 15.4 14.5 5.9 53 4.6 CALM 0 0 0 0 1029.9 1030.2 0.0
27/04:30pm 17.9 17.2 7.0 49 5.5 CALM 0 0 0 0 1029.9 1030.2 0.0
27/04:00pm 18.3 17.4 6.2 45 6.0 CALM 0 0 0 0 1029.6 1029.9 0.0
27/03:30pm 18.5 16.9 6.4 45 6.1 N 4 9 2 5 1029.6 1029.9 0.0
27/03:00pm 18.1 16.3 7.2 49 5.5 NNE 6 9 3 5 1029.6 1029.9 0.0
27/02:30pm 18.0 15.9 6.5 47 5.8 NNE 7 9 4 5 1029.6 1029.9 0.0
27/02:00pm 18.3 17.2 7.1 48 5.7 N 2 7 1 4 1029.8 1030.1 0.0
27/01:30pm 17.1 15.4 7.5 53 4.9 E 6 9 3 5 1030.1 1030.4 0.0

Other Formats:

Comma delimited format used in spreadsheet applications
http://www.bom.gov.au/fwo/IDN60801/IDN60801.95740.axf

JavaScript Object Notation format (JSON) in row-major order
http://www.bom.gov.au/fwo/IDN60801/IDN60801.95740.json